Terminal Aerodrome Forecast
Issued by NWS Charleston, WV

Current Version | Previous Version | Graphics & Text | Print | Product List | Glossary On
Versions: 1 2 3 4 5 6 7 8 9 10 11 12 13 14 15 16 17 18 19 20 21 22 23 24
000
FTUS41 KRLX 171100
TAFEKN
TAF
KEKN 171132Z 1712/1812 27011G18KT P6SM -DZ OVC013
      TEMPO 1712/1715 4SM -DZ OVC008
     FM171800 27012G19KT P6SM OVC016=

USA.gov is the U.S. government's official web portal to all federal, state and local government web resources and services.